createdAt,value
2023-03-06T00:02:00.644Z,5.30
2023-03-06T00:04:28.188Z,5.20
2023-03-06T00:06:55.769Z,5.20
2023-03-06T00:09:23.285Z,5.10
2023-03-06T00:11:50.823Z,5.00
2023-03-06T00:14:19.142Z,5.10
2023-03-06T00:16:46.678Z,5.10
2023-03-06T00:19:14.219Z,5.00
2023-03-06T00:21:42.543Z,4.90
2023-03-06T00:24:10.081Z,4.90
2023-03-06T00:26:37.615Z,4.80
2023-03-06T00:29:05.159Z,4.80
2023-03-06T00:31:33.480Z,4.80
2023-03-06T00:34:00.996Z,4.70
2023-03-06T00:36:29.395Z,4.70
2023-03-06T00:38:56.936Z,4.60
2023-03-06T00:41:25.229Z,4.60
2023-03-06T00:43:52.792Z,4.60
2023-03-06T00:46:20.327Z,4.60
2023-03-06T00:48:48.610Z,4.60
2023-03-06T00:51:16.188Z,4.60
2023-03-06T00:53:43.713Z,4.60
2023-03-06T00:56:11.222Z,4.60
2023-03-06T00:58:38.787Z,4.60
2023-03-06T01:01:06.381Z,4.50
2023-03-06T01:03:33.856Z,4.50
2023-03-06T01:06:02.177Z,4.50
2023-03-06T01:08:29.717Z,4.50
2023-03-06T01:10:57.253Z,4.50
2023-03-06T01:13:25.574Z,4.50
2023-03-06T01:15:53.107Z,4.50
2023-03-06T01:18:20.671Z,4.50
2023-03-06T01:20:48.242Z,4.50
2023-03-06T01:23:15.748Z,4.50
2023-03-06T01:25:43.303Z,4.50
2023-03-06T01:28:10.855Z,4.50
2023-03-06T01:30:38.392Z,4.50
2023-03-06T01:33:05.921Z,4.50
2023-03-06T01:35:33.502Z,4.50
2023-03-06T01:38:01.120Z,4.50
2023-03-06T01:40:29.416Z,4.50
2023-03-06T01:42:56.964Z,4.50
2023-03-06T01:45:24.496Z,4.40
2023-03-06T01:47:52.024Z,4.40
2023-03-06T01:50:19.602Z,4.40
2023-03-06T01:52:52.695Z,4.40
2023-03-06T01:55:25.677Z,4.60
2023-03-06T01:57:53.211Z,4.60
2023-03-06T02:00:23.722Z,4.50
2023-03-06T02:02:57.265Z,4.50
2023-03-06T02:05:24.776Z,4.50
2023-03-06T02:07:52.310Z,4.40
2023-03-06T02:10:20.631Z,4.40
2023-03-06T02:12:48.149Z,4.40
2023-03-06T02:15:16.461Z,4.60
2023-03-06T02:17:44.323Z,4.60
2023-03-06T02:20:26.932Z,4.60
2023-03-06T02:23:15.534Z,4.60
2023-03-06T02:25:45.771Z,4.50
2023-03-06T02:28:14.063Z,4.60
2023-03-06T02:30:41.662Z,4.60
2023-03-06T02:33:09.183Z,4.60
2023-03-06T02:35:36.773Z,4.60
2023-03-06T02:38:05.049Z,4.50
2023-03-06T02:40:32.573Z,4.50
2023-03-06T02:43:00.865Z,4.40
2023-03-06T02:45:43.555Z,4.40
2023-03-06T02:48:11.026Z,4.40
2023-03-06T02:50:38.549Z,4.30
2023-03-06T02:53:06.102Z,4.30
2023-03-06T02:55:33.637Z,4.30
2023-03-06T02:58:01.172Z,4.30
2023-03-06T03:00:28.736Z,4.20
2023-03-06T03:02:56.277Z,4.20
2023-03-06T03:05:23.797Z,4.20
2023-03-06T03:07:51.346Z,4.20
2023-03-06T03:10:18.889Z,4.20
2023-03-06T03:12:46.432Z,4.20
2023-03-06T03:15:14.246Z,4.20
2023-03-06T03:17:42.558Z,4.10
2023-03-06T03:20:10.331Z,4.20
2023-03-06T03:22:37.896Z,4.20
2023-03-06T03:25:05.558Z,4.10
2023-03-06T03:27:33.075Z,4.10
2023-03-06T03:30:01.399Z,4.10
2023-03-06T03:32:28.966Z,4.20
2023-03-06T03:34:57.227Z,4.10
2023-03-06T03:37:24.806Z,4.10
2023-03-06T03:39:52.332Z,4.10
2023-03-06T03:42:19.876Z,4.10
2023-03-06T03:44:47.467Z,4.10
2023-03-06T03:47:14.967Z,4.10
2023-03-06T03:49:42.501Z,4.10
2023-03-06T03:52:10.064Z,4.10
2023-03-06T03:54:37.598Z,4.30
2023-03-06T03:57:05.138Z,4.30
2023-03-06T03:59:33.830Z,4.20
2023-03-06T04:02:01.368Z,4.20
2023-03-06T04:04:29.667Z,4.10
2023-03-06T04:06:58.344Z,4.10
2023-03-06T04:09:25.873Z,4.10
2023-03-06T04:11:53.406Z,4.10
2023-03-06T04:14:21.000Z,4.00
2023-03-06T04:16:48.513Z,4.00
2023-03-06T04:19:16.058Z,4.00
2023-03-06T04:21:43.592Z,4.20
2023-03-06T04:24:11.897Z,4.40
2023-03-06T04:26:39.430Z,4.40
2023-03-06T04:29:06.995Z,4.30
2023-03-06T04:31:34.674Z,4.20
2023-03-06T04:34:02.846Z,4.20
2023-03-06T04:36:33.120Z,4.10
2023-03-06T04:39:00.687Z,4.10
2023-03-06T04:41:28.176Z,4.10
2023-03-06T04:43:56.035Z,4.00
2023-03-06T04:46:23.574Z,3.90
2023-03-06T04:48:51.890Z,3.90
2023-03-06T04:51:19.435Z,3.90
2023-03-06T04:53:46.953Z,3.80
2023-03-06T04:56:14.488Z,3.90
2023-03-06T04:58:42.053Z,3.80
2023-03-06T05:01:09.671Z,3.80
2023-03-06T05:03:37.118Z,3.80
2023-03-06T05:06:04.682Z,3.80
2023-03-06T05:08:32.220Z,3.80
2023-03-06T05:11:00.527Z,3.70
2023-03-06T05:13:28.083Z,3.80
2023-03-06T05:15:55.605Z,3.70
2023-03-06T05:18:23.909Z,3.70
2023-03-06T05:20:51.474Z,3.70
2023-03-06T05:23:19.009Z,3.70
2023-03-06T05:25:47.349Z,3.60
2023-03-06T05:28:14.888Z,3.60
2023-03-06T05:30:42.419Z,3.60
2023-03-06T05:33:09.958Z,3.70
2023-03-06T05:35:38.349Z,3.60
2023-03-06T05:38:07.438Z,3.60
2023-03-06T05:40:35.729Z,3.60
2023-03-06T05:43:03.354Z,3.60
2023-03-06T05:45:30.899Z,3.60
2023-03-06T05:47:58.430Z,3.60
2023-03-06T05:50:26.028Z,3.60
2023-03-06T05:52:53.564Z,3.60
2023-03-06T05:55:21.110Z,3.60
2023-03-06T05:57:48.691Z,3.90
2023-03-06T06:00:16.271Z,3.90
2023-03-06T06:02:46.475Z,3.90
2023-03-06T06:05:14.040Z,3.80
2023-03-06T06:07:41.577Z,4.10
2023-03-06T06:10:09.331Z,4.30
2023-03-06T06:12:37.203Z,4.30
2023-03-06T06:15:04.882Z,4.40
2023-03-06T06:17:32.419Z,4.40
2023-03-06T06:19:59.997Z,4.30
2023-03-06T06:22:27.514Z,4.20
2023-03-06T06:24:55.044Z,4.10
2023-03-06T06:27:23.368Z,4.20
2023-03-06T06:29:50.901Z,4.20
2023-03-06T06:32:18.455Z,4.10
2023-03-06T06:34:46.032Z,4.10
2023-03-06T06:37:13.554Z,4.30
2023-03-06T06:39:41.928Z,4.20
2023-03-06T06:42:29.082Z,4.20
2023-03-06T06:44:37.024Z,4.10
2023-03-06T06:49:32.123Z,4.00
2023-03-06T06:51:59.660Z,4.00
2023-03-06T06:54:27.192Z,4.00
2023-03-06T06:56:54.766Z,3.90
2023-03-06T06:59:25.860Z,3.90
2023-03-06T07:01:53.558Z,3.90
2023-03-06T07:04:21.709Z,3.90
2023-03-06T07:06:49.265Z,3.90
2023-03-06T07:09:16.780Z,3.90
2023-03-06T07:11:44.385Z,3.90
2023-03-06T07:14:11.914Z,3.90
2023-03-06T07:16:39.433Z,3.90
2023-03-06T07:19:07.788Z,3.90
2023-03-06T07:21:35.298Z,3.90
2023-03-06T07:24:02.830Z,3.90
2023-03-06T07:26:32.092Z,3.90
2023-03-06T07:28:57.999Z,3.90
2023-03-06T07:31:25.595Z,3.90
2023-03-06T07:33:53.114Z,3.90
2023-03-06T07:36:20.657Z,3.90
2023-03-06T07:38:48.201Z,4.00
2023-03-06T07:41:15.819Z,4.00
2023-03-06T07:43:43.374Z,4.00
2023-03-06T07:46:11.010Z,4.00
2023-03-06T07:48:39.272Z,4.00
2023-03-06T07:51:06.818Z,4.20
2023-03-06T07:53:34.362Z,4.20
2023-03-06T07:56:02.725Z,4.10
2023-03-06T07:58:30.251Z,4.10
2023-03-06T08:00:57.764Z,4.10
2023-03-06T08:03:26.500Z,4.10
2023-03-06T08:05:54.005Z,4.10
2023-03-06T08:08:22.328Z,4.10
2023-03-06T08:10:49.889Z,4.10
2023-03-06T08:13:17.412Z,4.10
2023-03-06T08:15:44.937Z,4.10
2023-03-06T08:18:12.510Z,4.20
2023-03-06T08:20:40.870Z,4.20
2023-03-06T08:23:08.390Z,4.20
2023-03-06T08:25:35.971Z,4.20
2023-03-06T08:28:03.502Z,4.20
2023-03-06T08:30:31.029Z,4.30
2023-03-06T08:32:58.613Z,4.30
2023-03-06T08:35:26.158Z,4.40
2023-03-06T08:37:53.691Z,4.40
2023-03-06T08:40:22.043Z,4.40
2023-03-06T08:42:49.567Z,4.40
2023-03-06T08:45:17.154Z,4.40
2023-03-06T08:47:45.421Z,4.50
2023-03-06T08:50:12.967Z,4.50
2023-03-06T08:52:40.495Z,4.50
2023-03-06T08:55:08.301Z,4.50
2023-03-06T08:57:35.850Z,4.60
2023-03-06T09:00:03.380Z,4.60
2023-03-06T09:02:30.974Z,4.60
2023-03-06T09:04:58.498Z,4.60
2023-03-06T09:07:26.042Z,4.70
2023-03-06T09:09:57.123Z,4.70
2023-03-06T09:12:24.646Z,4.70
2023-03-06T09:14:52.960Z,4.60
2023-03-06T09:17:20.553Z,4.60
2023-03-06T09:19:48.080Z,4.60
2023-03-06T09:22:15.615Z,4.60
2023-03-06T09:24:43.932Z,4.60
2023-03-06T09:27:11.445Z,4.60
2023-03-06T09:29:38.985Z,4.50
2023-03-06T09:32:06.624Z,4.50
2023-03-06T09:34:34.109Z,4.50
2023-03-06T09:37:01.633Z,4.70
2023-03-06T09:39:29.238Z,4.70
2023-03-06T09:41:57.579Z,4.70
2023-03-06T09:44:34.301Z,4.70
2023-03-06T09:47:19.546Z,4.60
2023-03-06T09:49:58.879Z,4.60
2023-03-06T09:52:31.865Z,4.80
2023-03-06T09:55:03.037Z,4.70
2023-03-06T09:57:37.201Z,4.70
2023-03-06T10:00:07.731Z,4.70
2023-03-06T10:02:50.013Z,4.60
2023-03-06T10:05:26.127Z,4.60
2023-03-06T10:08:03.346Z,4.60
2023-03-06T10:10:33.879Z,4.60
2023-03-06T10:13:01.413Z,4.60
2023-03-06T10:15:34.722Z,4.60
2023-03-06T10:18:02.295Z,4.60
2023-03-06T10:20:29.828Z,4.60
2023-03-06T10:23:03.091Z,4.60
2023-03-06T10:25:30.029Z,4.70
2023-03-06T10:27:57.556Z,4.70
2023-03-06T10:30:49.804Z,4.90
2023-03-06T10:33:22.765Z,5.00
2023-03-06T10:35:50.368Z,5.00
2023-03-06T10:38:32.921Z,5.00
2023-03-06T10:41:06.654Z,5.00
2023-03-06T10:43:36.405Z,5.10
2023-03-06T10:46:01.812Z,5.10
2023-03-06T10:48:29.319Z,5.10
2023-03-06T10:51:19.173Z,5.10
2023-03-06T10:53:48.185Z,5.30
2023-03-06T10:56:15.720Z,5.30
2023-03-06T10:58:44.075Z,5.30
2023-03-06T11:01:20.622Z,5.30
2023-03-06T11:03:48.924Z,5.60
2023-03-06T11:06:16.457Z,5.60
2023-03-06T11:08:43.983Z,5.60
2023-03-06T11:11:14.497Z,5.60
2023-03-06T11:13:41.756Z,5.60
2023-03-06T11:16:27.760Z,5.50
2023-03-06T11:18:55.263Z,5.50
2023-03-06T11:21:25.741Z,5.40
2023-03-06T11:23:53.326Z,5.40
2023-03-06T11:26:26.499Z,5.40
2023-03-06T11:28:59.950Z,5.40
2023-03-06T11:31:29.982Z,5.40
2023-03-06T11:34:12.328Z,5.40
2023-03-06T11:36:48.757Z,5.30
2023-03-06T11:39:19.909Z,5.30
2023-03-06T11:42:00.189Z,5.30
2023-03-06T11:44:45.952Z,5.30
2023-03-06T11:47:25.709Z,5.40
2023-03-06T11:50:23.407Z,5.40
2023-03-06T11:52:53.920Z,5.30
2023-03-06T11:55:21.430Z,5.40
2023-03-06T11:57:56.406Z,5.50
2023-03-06T12:01:00.978Z,5.50
2023-03-06T12:03:37.822Z,5.60
2023-03-06T12:06:05.359Z,5.60
2023-03-06T12:08:50.669Z,5.80
2023-03-06T12:11:24.088Z,5.90
2023-03-06T12:14:12.905Z,5.80
2023-03-06T12:16:49.419Z,5.80
2023-03-06T12:19:53.516Z,5.80
2023-03-06T12:22:39.675Z,5.80
2023-03-06T12:25:07.243Z,5.80
2023-03-06T12:27:37.279Z,5.80
2023-03-06T12:30:23.097Z,5.70
2023-03-06T12:33:03.402Z,5.80
2023-03-06T12:35:42.717Z,5.70
2023-03-06T12:38:28.015Z,5.80
2023-03-06T12:41:07.226Z,5.90
2023-03-06T12:43:49.915Z,6.10
2023-03-06T12:46:27.195Z,6.20
2023-03-06T12:49:06.682Z,6.20
2023-03-06T12:51:34.264Z,6.20
2023-03-06T12:54:01.816Z,6.20
2023-03-06T12:56:29.341Z,6.20
2023-03-06T12:58:56.929Z,6.20
2023-03-06T13:01:54.862Z,6.20
2023-03-06T13:04:37.288Z,6.20
2023-03-06T13:07:13.472Z,6.10
2023-03-06T13:09:56.203Z,6.00
2023-03-06T13:12:32.529Z,6.00
2023-03-06T13:15:00.126Z,5.90
2023-03-06T13:17:27.677Z,6.10
2023-03-06T13:20:13.753Z,6.10
2023-03-06T13:22:44.584Z,6.10
2023-03-06T13:25:18.935Z,6.00
2023-03-06T13:27:46.458Z,6.00
2023-03-06T13:30:29.077Z,5.90
2023-03-06T13:32:56.618Z,5.90
2023-03-06T13:35:30.210Z,5.80
2023-03-06T13:37:58.841Z,5.80
2023-03-06T13:40:26.351Z,5.80
2023-03-06T13:43:03.175Z,5.80
2023-03-06T13:45:30.729Z,5.80
2023-03-06T13:50:41.552Z,6.00
2023-03-06T13:53:36.237Z,5.90
2023-03-06T13:56:15.830Z,5.90
2023-03-06T13:59:14.341Z,5.80
2023-03-06T14:01:53.523Z,6.00
2023-03-06T14:04:38.789Z,5.90
2023-03-06T14:07:25.863Z,5.80
2023-03-06T14:10:02.353Z,5.80
2023-03-06T14:12:32.608Z,5.70
2023-03-06T14:15:03.060Z,5.70
2023-03-06T14:17:33.300Z,5.70
2023-03-06T14:20:13.649Z,5.70
2023-03-06T14:22:41.178Z,5.70
2023-03-06T14:25:17.663Z,5.60
2023-03-06T14:27:48.200Z,5.60
2023-03-06T14:30:15.749Z,5.50
2023-03-06T14:32:43.386Z,5.50
2023-03-06T14:35:22.680Z,5.50
2023-03-06T14:37:50.195Z,5.40
2023-03-06T14:40:17.725Z,5.60
2023-03-06T14:42:45.288Z,5.60
2023-03-06T14:45:16.563Z,5.50
2023-03-06T14:47:44.084Z,5.50
2023-03-06T14:50:26.711Z,5.50
2023-03-06T14:52:59.936Z,5.50
2023-03-06T14:55:27.552Z,5.50
2023-03-06T14:57:57.736Z,5.60
2023-03-06T15:00:25.300Z,5.50
2023-03-06T15:02:52.838Z,5.70
2023-03-06T15:05:26.797Z,5.50
2023-03-06T15:07:54.317Z,5.50
2023-03-06T15:10:24.664Z,5.50
2023-03-06T15:12:52.212Z,5.40
2023-03-06T15:15:19.757Z,5.30
2023-03-06T15:17:47.299Z,5.30
2023-03-06T15:20:39.515Z,5.30
2023-03-06T15:23:22.200Z,5.20
2023-03-06T15:25:49.779Z,5.20
2023-03-06T15:28:23.717Z,5.10
2023-03-06T15:31:06.044Z,5.10
2023-03-06T15:33:33.581Z,5.30
2023-03-06T15:36:04.030Z,5.30
2023-03-06T15:38:40.261Z,5.20
2023-03-06T15:41:07.812Z,5.20
2023-03-06T15:43:36.114Z,5.10
2023-03-06T15:46:03.758Z,5.00
2023-03-06T15:48:31.255Z,5.00
2023-03-06T15:50:58.788Z,5.10
2023-03-06T15:53:27.163Z,5.00
2023-03-06T15:55:54.719Z,5.00
2023-03-06T15:58:22.232Z,5.00
2023-03-06T16:00:50.168Z,5.00
2023-03-06T16:03:17.687Z,4.90
2023-03-06T16:05:46.104Z,4.80
2023-03-06T16:08:13.579Z,4.80
2023-03-06T16:10:41.104Z,4.80
2023-03-06T16:13:08.678Z,4.80
2023-03-06T16:15:38.918Z,4.80
2023-03-06T16:18:06.464Z,4.80
2023-03-06T16:20:34.001Z,4.80
2023-03-06T16:23:01.558Z,4.80
2023-03-06T16:25:29.092Z,4.80
2023-03-06T16:27:59.117Z,4.80
2023-03-06T16:30:26.701Z,4.80
2023-03-06T16:32:54.226Z,4.70
2023-03-06T16:35:21.776Z,4.70
2023-03-06T16:37:49.362Z,4.70
2023-03-06T16:40:23.420Z,4.70
2023-03-06T16:42:51.685Z,4.70
2023-03-06T16:45:18.525Z,4.60
2023-03-06T16:47:46.055Z,4.60
2023-03-06T16:50:22.570Z,4.60
2023-03-06T16:52:50.136Z,4.50
2023-03-06T16:55:17.673Z,4.40
2023-03-06T16:57:45.206Z,4.60
2023-03-06T17:00:13.681Z,4.80
2023-03-06T17:02:41.250Z,4.70
2023-03-06T17:05:09.626Z,4.60
2023-03-06T17:07:37.214Z,4.60
2023-03-06T17:10:04.732Z,4.50
2023-03-06T17:12:32.276Z,4.40
2023-03-06T17:15:00.629Z,4.60
2023-03-06T17:17:28.135Z,4.60
2023-03-06T17:19:55.672Z,4.50
2023-03-06T17:22:24.042Z,4.60
2023-03-06T17:24:52.344Z,4.60
2023-03-06T17:27:19.889Z,4.60
2023-03-06T17:29:47.465Z,4.50
2023-03-06T17:32:14.998Z,4.40
2023-03-06T17:34:43.306Z,4.30
2023-03-06T17:37:11.429Z,4.30
2023-03-06T17:39:38.993Z,4.30
2023-03-06T17:42:07.294Z,4.20
2023-03-06T17:44:34.876Z,4.20
2023-03-06T17:47:02.415Z,4.10
2023-03-06T17:49:29.935Z,4.10
2023-03-06T17:51:57.520Z,4.00
2023-03-06T17:54:25.843Z,3.90
2023-03-06T17:57:01.933Z,3.90
2023-03-06T17:59:29.465Z,3.90
2023-03-06T18:01:57.077Z,3.90
2023-03-06T18:04:24.705Z,3.80
2023-03-06T18:06:52.216Z,3.80
2023-03-06T18:09:19.745Z,3.80
2023-03-06T18:11:48.123Z,3.70
2023-03-06T18:14:15.641Z,3.70
2023-03-06T18:16:43.171Z,3.70
2023-03-06T18:19:11.303Z,3.70
2023-03-06T18:21:40.425Z,3.70
2023-03-06T18:24:06.427Z,3.60
2023-03-06T18:26:33.996Z,3.80
2023-03-06T18:29:02.288Z,3.80
2023-03-06T18:31:34.487Z,3.70
2023-03-06T18:34:00.379Z,3.70
2023-03-06T18:36:27.914Z,3.70
2023-03-06T18:38:56.233Z,3.90
2023-03-06T18:41:23.798Z,3.90
2023-03-06T18:43:57.364Z,3.90
2023-03-06T18:46:24.900Z,3.80
2023-03-06T18:48:52.472Z,3.80
2023-03-06T18:51:20.781Z,4.00
2023-03-06T18:53:48.296Z,4.00
2023-03-06T18:56:18.461Z,3.90
2023-03-06T18:58:46.009Z,3.90
2023-03-06T19:01:14.338Z,3.80
2023-03-06T19:03:41.897Z,3.80
2023-03-06T19:06:09.494Z,3.80
2023-03-06T19:08:37.007Z,3.70
2023-03-06T19:11:04.609Z,4.00
2023-03-06T19:13:32.913Z,4.00
2023-03-06T19:16:00.437Z,4.00
2023-03-06T19:18:29.170Z,3.90
2023-03-06T19:20:56.710Z,3.90
2023-03-06T19:23:24.227Z,3.90
2023-03-06T19:25:58.691Z,3.90
2023-03-06T19:28:26.219Z,3.90
2023-03-06T19:30:54.529Z,3.80
2023-03-06T19:33:22.105Z,3.80
2023-03-06T19:35:49.744Z,3.80
2023-03-06T19:38:17.175Z,3.80
2023-03-06T19:40:51.644Z,3.80
2023-03-06T19:43:19.162Z,3.80
2023-03-06T19:45:46.721Z,3.80
2023-03-06T19:48:14.543Z,3.80
2023-03-06T19:50:42.074Z,3.80
2023-03-06T19:53:09.599Z,4.00
2023-03-06T19:55:38.738Z,4.00
2023-03-06T19:58:06.254Z,4.00
2023-03-06T20:00:34.575Z,4.00
2023-03-06T20:03:02.239Z,4.00
2023-03-06T20:05:29.754Z,4.00
2023-03-06T20:07:58.075Z,4.00
2023-03-06T20:10:25.653Z,3.90
2023-03-06T20:12:53.174Z,4.00
2023-03-06T20:15:20.693Z,4.00
2023-03-06T20:17:49.042Z,4.00
2023-03-06T20:20:16.603Z,3.90
2023-03-06T20:22:44.104Z,4.00
2023-03-06T20:25:12.503Z,4.00
2023-03-06T20:27:40.045Z,4.00
2023-03-06T20:30:08.152Z,4.00
2023-03-06T20:32:35.448Z,4.00
2023-03-06T20:35:02.952Z,4.00
2023-03-06T20:37:30.468Z,4.00
2023-03-06T20:39:59.400Z,4.00
2023-03-06T20:42:26.935Z,4.00
2023-03-06T20:44:55.245Z,4.00
2023-03-06T20:47:23.313Z,4.00
2023-03-06T20:49:50.845Z,4.00
2023-03-06T20:52:18.422Z,4.00
2023-03-06T20:54:45.984Z,4.00
2023-03-06T20:57:13.500Z,4.10
2023-03-06T20:59:41.809Z,4.00
2023-03-06T21:02:09.662Z,4.00
2023-03-06T21:04:37.228Z,4.00
2023-03-06T21:07:04.732Z,4.20
2023-03-06T21:09:33.068Z,4.20
2023-03-06T21:12:00.635Z,4.20
2023-03-06T21:14:28.209Z,4.20
2023-03-06T21:16:55.806Z,4.20
2023-03-06T21:19:23.345Z,4.10
2023-03-06T21:21:50.901Z,4.10
2023-03-06T21:24:20.938Z,4.30
2023-03-06T21:26:46.012Z,4.30
2023-03-06T21:29:13.556Z,4.30
2023-03-06T21:31:41.186Z,4.40
2023-03-06T21:34:08.662Z,4.40
2023-03-06T21:36:36.200Z,4.30
2023-03-06T21:39:04.535Z,4.20
2023-03-06T21:41:32.090Z,4.20
2023-03-06T21:43:59.649Z,4.10
2023-03-06T21:46:27.184Z,4.10
2023-03-06T21:48:54.707Z,4.00
2023-03-06T21:51:23.014Z,4.00
2023-03-06T21:53:50.603Z,4.00
2023-03-06T21:56:18.137Z,3.90
2023-03-06T21:58:45.663Z,3.90
2023-03-06T22:01:15.113Z,3.90
2023-03-06T22:03:42.632Z,3.90
2023-03-06T22:06:10.946Z,3.90
2023-03-06T22:08:38.520Z,3.90
2023-03-06T22:11:11.731Z,3.80
2023-03-06T22:13:39.272Z,3.80
2023-03-06T22:16:07.288Z,3.80
2023-03-06T22:18:34.783Z,3.80
2023-03-06T22:21:12.088Z,3.80
2023-03-06T22:23:39.626Z,3.80
2023-03-06T22:26:07.183Z,3.80
2023-03-06T22:28:34.811Z,4.00
2023-03-06T22:31:08.099Z,4.00
2023-03-06T22:33:36.387Z,3.90
2023-03-06T22:36:04.087Z,3.90
2023-03-06T22:38:31.486Z,3.90
2023-03-06T22:40:59.776Z,3.80
2023-03-06T22:43:27.340Z,3.80
2023-03-06T22:45:54.899Z,3.70
2023-03-06T22:48:23.209Z,3.60
2023-03-06T22:50:50.769Z,3.60
2023-03-06T22:53:18.327Z,3.60
2023-03-06T22:55:45.877Z,3.60
2023-03-06T22:58:13.521Z,3.60
2023-03-06T23:00:41.055Z,3.80
2023-03-06T23:03:09.350Z,3.80
2023-03-06T23:05:37.222Z,3.80
2023-03-06T23:08:04.758Z,3.70
2023-03-06T23:10:33.062Z,3.70
2023-03-06T23:13:00.645Z,3.70
2023-03-06T23:15:28.208Z,3.70
2023-03-06T23:17:55.747Z,3.60
2023-03-06T23:20:23.312Z,3.60
2023-03-06T23:22:50.837Z,3.60
2023-03-06T23:25:19.158Z,3.60
2023-03-06T23:27:46.753Z,3.60
2023-03-06T23:30:14.312Z,3.60
2023-03-06T23:32:43.388Z,3.70
2023-03-06T23:35:09.790Z,3.80
2023-03-06T23:37:37.332Z,3.80
2023-03-06T23:40:05.845Z,3.80
2023-03-06T23:42:33.418Z,3.80
2023-03-06T23:45:00.959Z,3.80
2023-03-06T23:47:28.503Z,3.80
2023-03-06T23:49:56.094Z,3.70
2023-03-06T23:52:23.622Z,3.70
2023-03-06T23:54:51.176Z,3.70
2023-03-06T23:57:18.761Z,3.70
2023-03-06T23:59:46.295Z,3.70
